Time;durP1;ratioP1;P1;durP2;ratioP2;P2;SDS_P1;SDS_P2;PMS_P1;PMS_P2;Temp;Humidity;BMP_temperature;BMP_pressure;BME280_temperature;BME280_humidity;BME280_pressure;Samples;Min_cycle;Max_cycle;Signal;HPM_P1;HPM_P2
2021/06/07 13:45:03;;;;;;;9.18;4.18;;;;;;;31.30;22.23;100306.97;5163459;27;20383;-78
2021/06/07 13:47:29;;;;;;;4.47;3.95;;;;;;;31.27;22.67;100308.38;5129632;27;20402;-76
2021/06/07 13:50:14;;;;;;;6.00;3.67;;;;;;;31.24;22.83;100302.69;5132707;27;20055;-77
2021/06/07 13:52:40;;;;;;;6.13;3.75;;;;;;;31.30;22.57;100305.00;5131297;27;20506;-78
2021/06/07 13:55:19;;;;;;;4.60;3.80;;;;;;;31.27;22.73;100296.59;5132932;27;20111;-78
2021/06/07 13:57:58;;;;;;;4.05;3.65;;;;;;;31.30;23.02;100293.22;5129812;27;20235;-73
2021/06/07 14:00:25;;;;;;;5.32;3.80;;;;;;;31.33;22.72;100285.16;5129814;27;20054;-73
2021/06/07 14:02:51;;;;;;;4.82;3.70;;;;;;;31.30;21.95;100282.19;5129240;27;20526;-74
2021/06/07 14:05:26;;;;;;;9.02;4.97;;;;;;;31.13;22.13;100296.59;5130433;27;28854;-75
2021/06/07 14:07:51;;;;;;;7.10;4.05;;;;;;;31.10;22.75;100292.50;5112427;27;20479;-75
2021/06/07 14:10:16;;;;;;;5.68;3.88;;;;;;;31.07;22.33;100281.28;5130560;27;20020;-73
2021/06/07 14:12:42;;;;;;;8.38;4.35;;;;;;;30.89;22.62;100281.06;5130603;27;20036;-74
2021/06/07 14:15:08;;;;;;;6.57;4.30;;;;;;;30.78;22.67;100279.63;5131003;27;20466;-73
2021/06/07 14:17:33;;;;;;;5.85;4.50;;;;;;;30.74;22.97;100281.34;5130655;27;20472;-74
2021/06/07 14:19:59;;;;;;;7.68;4.25;;;;;;;30.74;22.95;100278.59;5129348;27;20028;-74
2021/06/07 14:25:11;;;;;;;5.13;3.92;;;;;;;30.78;23.31;100274.94;5126407;27;20043;-75
2021/06/07 14:27:36;;;;;;;6.30;4.32;;;;;;;30.65;23.40;100271.06;5128481;27;34129;-72
2021/06/07 14:30:04;;;;;;;6.68;4.15;;;;;;;30.61;23.52;100267.28;5128048;27;45637;-71
2021/06/07 14:32:29;;;;;;;5.88;4.10;;;;;;;30.63;23.60;100273.28;5130236;27;20165;-72
2021/06/07 14:34:54;;;;;;;6.15;4.20;;;;;;;30.60;23.72;100273.91;5119477;27;40672;-73
2021/06/07 14:37:20;;;;;;;5.38;4.07;;;;;;;30.51;24.04;100265.56;5110344;27;36071;-72
2021/06/07 14:39:45;;;;;;;5.47;4.22;;;;;;;30.36;23.90;100268.56;5108753;27;32379;-72
2021/06/07 14:42:12;;;;;;;5.07;4.57;;;;;;;30.26;24.00;100268.72;5119500;27;43747;-72
2021/06/07 14:44:37;;;;;;;6.28;4.13;;;;;;;30.26;24.64;100264.03;5134472;27;20047;-74
2021/06/07 14:47:03;;;;;;;6.93;4.38;;;;;;;30.35;24.88;100264.16;5136935;27;37306;-74
2021/06/07 14:49:28;;;;;;;5.05;4.25;;;;;;;30.37;24.40;100262.75;5138655;27;20077;-75
2021/06/07 14:51:55;;;;;;;7.95;4.80;;;;;;;30.31;24.37;100266.69;5137231;27;42607;-75
2021/06/07 14:54:22;;;;;;;4.80;4.22;;;;;;;30.15;24.19;100268.06;5138387;27;20026;-73
2021/06/07 14:56:48;;;;;;;4.70;4.00;;;;;;;29.97;24.79;100266.97;5115949;27;20028;-75
2021/06/07 14:59:14;;;;;;;5.28;4.40;;;;;;;29.85;24.84;100260.03;5114534;28;20028;-74
2021/06/07 15:01:39;;;;;;;4.90;3.97;;;;;;;29.85;25.15;100253.69;5115398;28;20036;-75
2021/06/07 15:04:04;;;;;;;4.60;4.20;;;;;;;29.86;24.73;100249.84;5115380;27;43121;-76
2021/06/07 15:06:31;;;;;;;6.13;4.28;;;;;;;29.80;25.10;100251.00;5115914;27;35014;-74
2021/06/07 15:08:57;;;;;;;5.95;4.50;;;;;;;29.83;25.65;100245.75;5118530;27;20038;-72
2021/06/07 15:11:22;;;;;;;6.65;4.90;;;;;;;29.86;25.46;100244.34;5124413;27;20032;-76
2021/06/07 15:13:48;;;;;;;6.03;4.38;;;;;;;29.88;25.60;100240.19;5124320;27;20089;-75
2021/06/07 15:16:13;;;;;;;6.22;4.43;;;;;;;29.82;25.71;100240.56;5122759;27;41094;-74
2021/06/07 15:18:38;;;;;;;7.68;4.28;;;;;;;29.79;25.90;100238.41;5128549;27;40063;-74
2021/06/07 15:21:04;;;;;;;7.35;4.75;;;;;;;29.74;25.42;100238.47;5133512;27;42795;-74
2021/06/07 15:23:29;;;;;;;7.28;4.60;;;;;;;29.62;25.25;100228.78;5125491;27;20040;-78
2021/06/07 15:25:55;;;;;;;5.20;4.40;;;;;;;29.45;25.65;100228.47;5119026;27;20044;-73
2021/06/07 15:28:21;;;;;;;5.28;4.78;;;;;;;29.29;25.36;100228.66;5116141;27;20066;-74
2021/06/07 15:30:46;;;;;;;8.10;5.40;;;;;;;29.16;25.74;100226.63;5113900;28;40425;-75
2021/06/07 15:33:11;;;;;;;6.65;4.57;;;;;;;29.12;26.08;100220.91;5115201;28;28447;-74
2021/06/07 15:35:41;;;;;;;7.80;4.50;;;;;;;29.17;26.21;100223.59;5096799;28;29096;-76
2021/06/07 15:38:28;;;;;;;5.32;4.60;;;;;;;29.14;26.06;100220.63;5115861;27;20060;-77
2021/06/07 15:41:01;;;;;;;6.25;4.53;;;;;;;29.06;25.84;100213.03;5114259;28;20759;-81
2021/06/07 15:43:27;;;;;;;4.95;4.22;;;;;;;28.89;26.25;100211.59;5115217;27;20082;-81
2021/06/07 15:45:54;;;;;;;6.43;4.45;;;;;;;28.75;26.20;100211.50;5113872;28;20032;-82
2021/06/07 15:48:21;;;;;;;5.57;4.65;;;;;;;28.69;26.38;100209.91;5115191;28;20157;-82
2021/06/07 15:50:46;;;;;;;8.57;5.32;;;;;;;28.66;26.77;100214.03;5117264;27;20030;-81
2021/06/07 15:53:12;;;;;;;6.40;4.43;;;;;;;28.66;26.89;100208.56;5116374;27;20563;-82
2021/06/07 15:55:38;;;;;;;8.43;4.97;;;;;;;28.65;26.89;100201.47;5115930;27;20027;-78
2021/06/07 15:58:03;;;;;;;7.30;5.13;;;;;;;28.58;27.15;100211.91;5113421;28;20028;-76
2021/06/07 16:00:29;;;;;;;8.98;5.07;;;;;;;28.52;27.15;100199.38;5114579;27;20069;-73
2021/06/07 16:02:54;;;;;;;6.05;4.70;;;;;;;28.47;27.16;100205.75;5114376;27;26270;-70
2021/06/07 16:05:20;;;;;;;6.47;4.97;;;;;;;28.51;27.42;100200.50;5113422;28;20038;-75
2021/06/07 16:07:45;;;;;;;6.30;4.70;;;;;;;28.50;27.11;100194.19;5113697;27;20042;-76
2021/06/07 16:10:11;;;;;;;8.98;4.68;;;;;;;28.48;27.35;100188.19;5114464;27;20036;-75
2021/06/07 16:12:36;;;;;;;5.55;4.43;;;;;;;28.50;27.43;100199.69;5113457;28;20028;-71
2021/06/07 16:15:03;;;;;;;6.60;4.35;;;;;;;28.47;27.41;100192.06;5114533;27;28055;-71
2021/06/07 16:17:29;;;;;;;6.10;4.78;;;;;;;28.47;27.89;100183.84;5114466;27;20111;-71
2021/06/07 16:21:11;;;;;;;8.30;5.30;;;;;;;28.49;27.91;100186.28;5113977;28;20040;-81
2021/06/07 16:22:48;;;;;;;5.93;5.30;;;;;;;28.45;27.58;100183.28;5114260;28;20028;-78
2021/06/07 16:25:14;;;;;;;5.45;4.88;;;;;;;28.36;27.76;100183.13;5114221;27;34669;-81
2021/06/07 16:27:39;;;;;;;7.30;4.63;;;;;;;28.28;27.76;100186.50;5114679;27;20489;-80
2021/06/07 16:30:05;;;;;;;5.85;4.88;;;;;;;28.12;27.55;100185.00;5114003;27;32568;-73
2021/06/07 16:32:30;;;;;;;6.57;4.45;;;;;;;27.93;27.81;100184.88;5112972;28;20036;-82
2021/06/07 16:34:56;;;;;;;5.10;4.60;;;;;;;27.75;27.81;100191.81;5113906;27;35744;-80
2021/06/07 16:37:21;;;;;;;6.93;4.30;;;;;;;27.55;28.47;100187.34;5113802;27;41946;-79
2021/06/07 16:39:46;;;;;;;9.68;4.65;;;;;;;27.36;28.32;100182.53;5114084;27;26367;-77
2021/06/07 16:42:12;;;;;;;8.43;4.78;;;;;;;27.24;28.62;100193.75;5114579;27;20020;-77
2021/06/07 16:44:37;;;;;;;7.43;4.30;;;;;;;27.15;28.96;100188.06;5095991;28;20392;-75
2021/06/07 16:47:03;;;;;;;5.53;4.53;;;;;;;27.07;29.19;100185.94;5114805;27;41984;-79
2021/06/07 16:49:28;;;;;;;6.15;4.70;;;;;;;27.03;29.09;100191.13;5114857;27;20388;-76
2021/06/07 16:51:54;;;;;;;5.22;4.32;;;;;;;26.93;29.33;100190.34;5118669;28;20456;-75
2021/06/07 16:54:19;;;;;;;7.38;4.40;;;;;;;26.77;29.29;100181.41;5113387;28;29705;-78
2021/06/07 16:56:44;;;;;;;6.63;4.50;;;;;;;26.64;29.68;100177.31;5115621;27;20024;-72
2021/06/07 16:59:10;;;;;;;9.43;4.93;;;;;;;26.52;29.90;100177.66;5113422;28;20434;-77
2021/06/07 17:01:35;;;;;;;6.28;4.60;;;;;;;26.44;30.10;100183.69;5113897;27;37068;-74
2021/06/07 17:04:00;;;;;;;6.07;4.53;;;;;;;26.37;30.11;100189.41;5113695;27;39508;-72
2021/06/07 17:06:26;;;;;;;6.53;4.82;;;;;;;26.29;30.91;100188.06;5113326;27;41722;-75
2021/06/07 17:08:51;;;;;;;11.25;5.07;;;;;;;26.23;30.62;100188.34;5112424;28;20898;-75
2021/06/07 17:11:17;;;;;;;6.22;4.50;;;;;;;26.18;30.62;100197.38;5114188;27;20039;-73
2021/06/07 17:13:42;;;;;;;7.72;5.22;;;;;;;26.12;30.96;100192.97;5114530;27;20036;-75
2021/06/07 17:16:09;;;;;;;11.00;5.15;;;;;;;26.06;31.14;100185.91;5112254;28;20306;-72
2021/06/07 17:18:35;;;;;;;5.63;4.57;;;;;;;26.01;31.57;100186.69;5113576;27;20032;-73
2021/06/07 17:21:01;;;;;;;7.22;5.30;;;;;;;26.06;31.90;100191.38;5112223;28;20028;-73
2021/06/07 17:23:26;;;;;;;5.93;4.60;;;;;;;26.04;31.76;100188.06;5114031;27;20182;-74
2021/06/07 17:25:54;;;;;;;6.25;5.05;;;;;;;26.06;32.45;100188.63;5114175;27;20060;-76
2021/06/07 17:28:19;;;;;;;6.85;4.63;;;;;;;26.04;32.46;100193.53;5114224;27;20722;-74
2021/06/07 17:30:44;;;;;;;7.18;5.30;;;;;;;26.02;32.55;100185.63;5113431;27;31670;-76
2021/06/07 17:33:10;;;;;;;9.02;5.65;;;;;;;26.00;32.82;100188.59;5095232;28;20028;-73
2021/06/07 17:35:36;;;;;;;5.63;5.00;;;;;;;26.00;32.79;100194.06;5094421;28;38489;-73
2021/06/07 17:38:01;;;;;;;7.03;4.90;;;;;;;25.93;33.15;100190.78;5112615;28;20464;-72
2021/06/07 17:40:26;;;;;;;7.97;5.72;;;;;;;25.90;33.45;100185.06;5113742;27;20055;-73
2021/06/07 17:42:52;;;;;;;6.43;5.38;;;;;;;25.92;33.65;100191.88;5112059;28;20039;-72
2021/06/07 17:45:17;;;;;;;7.25;5.25;;;;;;;25.97;33.66;100182.84;5111442;28;36913;-75
2021/06/07 17:47:43;;;;;;;7.50;5.25;;;;;;;25.97;34.19;100191.03;5111800;28;33152;-77
2021/06/07 17:50:12;;;;;;;10.40;5.95;;;;;;;25.99;33.85;100188.88;5112208;28;20066;-75
2021/06/07 17:52:37;;;;;;;8.43;5.30;;;;;;;25.97;34.41;100183.69;5112316;27;20028;-74
2021/06/07 17:55:04;;;;;;;7.40;6.03;;;;;;;25.98;34.26;100188.03;5115567;27;34648;-77
2021/06/07 17:57:29;;;;;;;7.63;6.38;;;;;;;25.87;34.21;100186.41;5113913;28;20591;-76
2021/06/07 17:59:54;;;;;;;9.60;5.90;;;;;;;25.84;34.19;100192.41;5098806;28;20028;-76
2021/06/07 18:02:20;;;;;;;8.30;6.00;;;;;;;25.80;34.49;100194.88;5114085;28;23767;-75
2021/06/07 18:04:45;;;;;;;8.27;6.65;;;;;;;25.80;34.58;100185.88;5114950;27;20112;-74
2021/06/07 18:07:11;;;;;;;8.85;6.38;;;;;;;25.83;34.84;100190.78;5115063;27;20072;-72
2021/06/07 18:09:36;;;;;;;9.88;6.55;;;;;;;25.85;34.54;100189.41;5114792;27;26605;-72
2021/06/07 18:12:01;;;;;;;9.05;6.60;;;;;;;25.82;35.10;100191.84;5114105;27;37691;-73
2021/06/07 18:14:27;;;;;;;9.55;6.55;;;;;;;25.84;34.92;100195.97;5096221;28;20044;-74
2021/06/07 18:16:53;;;;;;;7.28;6.32;;;;;;;25.83;35.16;100199.81;5115054;27;20383;-78
2021/06/07 18:19:19;;;;;;;8.90;6.80;;;;;;;25.94;35.44;100197.88;5096384;28;20027;-75
2021/06/07 18:21:44;;;;;;;11.00;7.38;;;;;;;25.97;35.31;100197.34;5114630;27;22472;-75
2021/06/07 18:24:09;;;;;;;9.20;6.68;;;;;;;25.96;35.18;100205.81;5112455;28;40996;-76
2021/06/07 18:26:35;;;;;;;9.07;7.63;;;;;;;25.90;35.13;100196.78;5113887;27;43935;-78
2021/06/07 18:29:00;;;;;;;11.07;7.35;;;;;;;25.84;35.17;100203.34;5093536;27;20051;-75
2021/06/07 18:31:26;;;;;;;9.98;6.68;;;;;;;25.81;35.53;100201.16;5111695;28;38205;-72
2021/06/07 18:33:51;;;;;;;10.88;6.95;;;;;;;25.89;35.90;100195.16;5098014;28;20032;-71
2021/06/07 18:36:16;;;;;;;8.25;6.80;;;;;;;25.95;35.86;100199.50;5097186;28;40741;-77
2021/06/07 18:38:42;;;;;;;10.95;7.35;;;;;;;26.01;36.14;100197.59;5097354;28;38414;-76
2021/06/07 18:41:07;;;;;;;10.85;7.68;;;;;;;25.97;35.50;100196.50;5079830;28;20024;-73
2021/06/07 18:43:34;;;;;;;16.40;7.78;;;;;;;25.93;35.99;100193.53;5096312;28;20041;-84
2021/06/07 18:46:00;;;;;;;11.43;7.50;;;;;;;25.85;35.73;100205.78;5097297;28;20171;-76
2021/06/07 18:48:25;;;;;;;9.25;7.10;;;;;;;25.78;35.89;100198.94;5096243;28;21270;-75
2021/06/07 18:50:50;;;;;;;9.38;7.05;;;;;;;25.77;36.12;100200.06;5095443;28;39654;-77
2021/06/07 18:53:17;;;;;;;13.60;9.00;;;;;;;25.67;35.80;100206.31;5096649;28;41587;-75
2021/06/07 18:55:42;;;;;;;12.07;7.85;;;;;;;25.51;35.84;100205.47;5094477;28;20119;-76
2021/06/07 18:58:11;;;;;;;25.13;17.48;;;;;;;25.33;35.68;100210.34;5094860;28;41116;-78
2021/06/07 19:00:36;;;;;;;39.83;33.15;;;;;;;25.22;35.99;100207.81;5094292;28;20029;-76
2021/06/07 19:03:02;;;;;;;14.00;9.27;;;;;;;25.14;36.57;100212.69;5095490;28;20033;-75
2021/06/07 19:05:28;;;;;;;13.52;7.85;;;;;;;25.04;36.42;100211.84;5095452;28;20033;-75
2021/06/07 19:07:53;;;;;;;16.73;8.10;;;;;;;24.95;36.64;100212.34;5095631;28;20025;-70
2021/06/07 19:10:19;;;;;;;26.00;8.60;;;;;;;25.05;37.63;100227.91;5095519;28;20044;-74
2021/06/07 19:12:44;;;;;;;17.20;8.10;;;;;;;25.20;37.55;100218.97;5096250;28;20067;-80
2021/06/07 19:15:10;;;;;;;15.43;7.40;;;;;;;25.30;37.62;100227.22;5112551;28;20033;-82
2021/06/07 19:17:37;;;;;;;13.10;8.20;;;;;;;25.18;36.54;100230.16;5095455;28;20025;-81
2021/06/07 19:20:03;;;;;;;15.52;8.77;;;;;;;24.91;36.35;100227.59;5097380;28;20020;-77
2021/06/07 19:22:29;;;;;;;16.70;8.82;;;;;;;24.64;36.67;100225.00;5094028;28;20039;-70
2021/06/07 19:24:54;;;;;;;17.10;9.02;;;;;;;24.43;36.72;100229.47;5095338;28;32907;-76
2021/06/07 19:27:19;;;;;;;12.95;9.10;;;;;;;24.26;37.21;100233.16;5093332;28;42367;-74
2021/06/07 19:29:45;;;;;;;19.33;9.38;;;;;;;24.08;37.54;100236.25;5094226;28;39600;-74
2021/06/07 19:32:10;;;;;;;16.35;10.25;;;;;;;23.94;37.74;100242.13;5095323;28;20035;-77
2021/06/07 19:34:35;;;;;;;15.68;9.18;;;;;;;23.82;38.06;100244.16;5095199;28;20113;-74
2021/06/07 19:37:01;;;;;;;17.58;9.48;;;;;;;23.71;38.14;100247.88;5094321;28;37098;-76
2021/06/07 19:39:26;;;;;;;19.13;9.38;;;;;;;23.61;38.33;100249.38;5094775;28;34752;-80
2021/06/07 19:41:52;;;;;;;15.32;9.57;;;;;;;23.47;38.58;100251.69;5093441;28;21854;-80
2021/06/07 19:44:17;;;;;;;19.08;9.45;;;;;;;23.38;38.95;100246.97;5095846;28;20493;-75
2021/06/07 19:46:42;;;;;;;16.90;9.50;;;;;;;23.28;39.18;100242.22;5093407;28;30016;-76
2021/06/07 19:49:08;;;;;;;20.38;12.00;;;;;;;23.17;39.27;100248.59;5094550;28;39769;-69
2021/06/07 19:51:33;;;;;;;24.75;15.02;;;;;;;23.04;39.55;100252.50;5095418;28;20453;-73
2021/06/07 19:53:59;;;;;;;22.70;13.80;;;;;;;22.94;39.87;100247.75;5075853;28;29776;-75
2021/06/07 19:56:24;;;;;;;22.05;12.25;;;;;;;22.83;39.86;100246.78;5095378;28;20086;-78
2021/06/07 19:58:50;;;;;;;26.13;10.82;;;;;;;22.73;40.04;100250.19;5110914;28;20086;-75
2021/06/07 20:01:15;;;;;;;20.88;11.15;;;;;;;22.62;40.34;100253.81;5095306;28;20035;-73
2021/06/07 20:03:41;;;;;;;16.45;11.13;;;;;;;22.54;40.46;100252.34;5094119;28;33568;-68
2021/06/07 20:06:06;;;;;;;44.45;16.27;;;;;;;22.44;40.70;100260.31;5093768;28;41823;-77
2021/06/07 20:08:32;;;;;;;58.95;19.13;;;;;;;22.38;41.00;100264.03;5092448;28;41383;-74
2021/06/07 20:10:57;;;;;;;40.17;17.33;;;;;;;22.34;41.38;100252.00;5093675;28;20059;-70
2021/06/07 20:13:23;;;;;;;37.67;15.40;;;;;;;22.30;41.71;100266.03;5093934;28;41260;-76
2021/06/07 20:15:48;;;;;;;38.58;15.27;;;;;;;22.34;41.99;100265.56;5076612;28;20059;-77
2021/06/07 20:18:14;;;;;;;260.45;51.85;;;;;;;22.30;42.07;100260.63;5093384;28;20063;-77
2021/06/07 20:20:39;;;;;;;166.00;40.00;;;;;;;22.30;42.31;100267.94;5097122;28;20029;-68
2021/06/07 20:23:05;;;;;;;51.38;19.00;;;;;;;22.27;42.43;100269.25;5110350;28;21104;-69
2021/06/07 20:25:31;;;;;;;48.15;17.45;;;;;;;22.23;42.64;100264.59;5111523;27;20081;-68
2021/06/07 20:27:56;;;;;;;32.70;15.93;;;;;;;22.18;42.81;100273.44;5113662;28;20028;-73
2021/06/07 20:30:21;;;;;;;27.58;14.00;;;;;;;22.13;42.88;100268.75;5112798;28;24996;-73
2021/06/07 20:32:47;;;;;;;35.42;14.60;;;;;;;22.10;43.27;100263.00;5095739;28;39907;-73
2021/06/07 20:35:13;;;;;;;57.50;21.02;;;;;;;22.04;43.16;100269.41;5115019;27;20412;-72
2021/06/07 20:37:39;;;;;;;37.83;13.93;;;;;;;21.98;43.43;100268.50;5114972;28;20055;-75
2021/06/07 20:40:05;;;;;;;26.23;13.13;;;;;;;21.91;43.48;100273.22;5096851;28;20032;-71
2021/06/07 20:42:31;;;;;;;18.17;11.60;;;;;;;21.86;43.60;100276.69;5112968;28;20179;-76
2021/06/07 20:44:59;;;;;;;31.10;12.43;;;;;;;21.79;43.80;100276.03;5096010;28;20044;-77
2021/06/07 20:47:27;;;;;;;23.15;11.82;;;;;;;21.75;44.10;100280.28;5115712;28;20028;-75
2021/06/07 20:49:52;;;;;;;23.60;12.07;;;;;;;21.70;44.13;100285.59;5113468;28;20468;-72
2021/06/07 20:52:18;;;;;;;33.88;13.32;;;;;;;21.63;44.42;100283.84;5115012;27;20032;-78
2021/06/07 20:54:43;;;;;;;30.92;13.27;;;;;;;21.58;44.60;100283.78;5113587;28;25253;-71
2021/06/07 20:57:09;;;;;;;28.08;11.32;;;;;;;21.54;44.67;100285.31;5114143;28;24809;-70
2021/06/07 20:59:34;;;;;;;17.35;11.13;;;;;;;21.51;44.98;100284.94;5113804;28;37373;-67
2021/06/07 21:02:00;;;;;;;21.95;11.65;;;;;;;21.48;45.21;100280.81;5114199;27;20028;-71
2021/06/07 21:04:25;;;;;;;18.60;11.95;;;;;;;21.44;45.22;100287.78;5114408;28;20036;-68
2021/06/07 21:06:50;;;;;;;28.33;11.32;;;;;;;21.41;45.48;100286.38;5113629;28;25287;-70
